Ellenburg Center, New York
Current Conditions -  °F | °C
As of 7:53 AM on Friday 24 Oct 2014 (Local Time) from KPBG Reporting Station
Overcast Overcast  
Wind Chill: 36°   Ceiling: 1600
Heat Index: 43°   Visibility: 10mi
Dew Point: 41°   Wind: 13mph
Humidity: 93%   Direction: 350°N
Pressure: 29.88"   Gusts: NA
Location:  44.86°N, 73.9°W
Report Text: KPBG 241153Z AUTO 35011KT 10SM BKN016 OVC021 06/05 A2988 RMK AO2 SLP120 60006 70046 T00610050 10067 20056 51007
Loading
Personal Weather Stations






























Interactive Weather Map
Tropical Storm Tracking
New forecast layout! Learn more

10-Day Weather Forecast

Advertisements
Track Severe Weather on mobile